createdAt,value
2023-04-12T00:00:41.724Z,101226.88
2023-04-12T00:01:43.628Z,101239.84
2023-04-12T00:02:45.528Z,101239.84
2023-04-12T00:03:51.030Z,101234.47
2023-04-12T00:04:58.016Z,101226.88
2023-04-12T00:06:07.368Z,101235.34
2023-04-12T00:07:10.169Z,101243.22
2023-04-12T00:08:11.944Z,101241.53
2023-04-12T00:09:14.542Z,101244.38
2023-04-12T00:10:16.586Z,101247.19
2023-04-12T00:11:18.440Z,101236.47
2023-04-12T00:12:20.763Z,101234.78
2023-04-12T00:13:22.563Z,101240.13
2023-04-12T00:14:25.403Z,101244.66
2023-04-12T00:15:27.780Z,101245.66
2023-04-12T00:16:29.661Z,101244.66
2023-04-12T00:17:31.533Z,101250.84
2023-04-12T00:18:33.396Z,101251.00
2023-04-12T00:19:35.406Z,101247.47
2023-04-12T00:20:37.481Z,101251.00
2023-04-12T00:21:39.332Z,101242.97
2023-04-12T00:22:44.788Z,101248.31
2023-04-12T00:23:47.578Z,101242.97
2023-04-12T00:24:49.371Z,101253.69
2023-04-12T00:25:51.282Z,101249.31
2023-04-12T00:26:53.286Z,101251.13
2023-04-12T00:27:55.051Z,101254.69
2023-04-12T00:28:57.881Z,101255.66
2023-04-12T00:29:59.708Z,101261.88
2023-04-12T00:31:02.874Z,101246.16
2023-04-12T00:32:06.003Z,101253.00
2023-04-12T00:33:08.040Z,101256.50
2023-04-12T00:34:09.812Z,101256.66
2023-04-12T00:35:11.712Z,101247.63
2023-04-12T00:36:14.414Z,101254.94
2023-04-12T00:37:17.270Z,101243.75
2023-04-12T00:38:19.174Z,101246.91
2023-04-12T00:39:21.033Z,101250.44
2023-04-12T00:40:22.930Z,101254.94
2023-04-12T00:41:26.490Z,101247.03
2023-04-12T00:42:28.591Z,101238.97
2023-04-12T00:43:30.367Z,101234.47
2023-04-12T00:44:33.998Z,101235.03
2023-04-12T00:45:37.583Z,101231.63
2023-04-12T00:46:39.790Z,101245.22
2023-04-12T00:47:45.449Z,101226.28
2023-04-12T00:48:48.428Z,101233.50
2023-04-12T00:49:51.540Z,101232.63
2023-04-12T00:50:55.660Z,101228.84
2023-04-12T00:52:18.140Z,101237.59
2023-04-12T00:53:19.961Z,101237.59
2023-04-12T00:54:22.269Z,101229.84
2023-04-12T00:55:24.588Z,101227.41
2023-04-12T00:56:28.522Z,101228.25
2023-04-12T00:57:40.479Z,101225.44
2023-04-12T00:58:42.547Z,101220.09
2023-04-12T00:59:44.509Z,101223.75
2023-04-12T01:00:50.332Z,101227.41
2023-04-12T01:01:52.950Z,101222.03
2023-04-12T01:02:55.109Z,101225.72
2023-04-12T01:04:01.506Z,101214.28
2023-04-12T01:05:06.491Z,101206.41
2023-04-12T01:06:27.137Z,101213.78
2023-04-12T01:07:38.943Z,101217.28
2023-04-12T01:09:11.369Z,101215.16
2023-04-12T01:10:25.358Z,101210.50
2023-04-12T01:12:06.887Z,101191.16
2023-04-12T01:13:49.148Z,101214.13
2023-04-12T01:15:07.257Z,101219.94
2023-04-12T01:16:12.731Z,101216.84
2023-04-12T01:17:20.950Z,101221.81
2023-04-12T01:18:25.720Z,101221.91
2023-04-12T01:20:01.701Z,101222.50
2023-04-12T01:21:08.932Z,101216.28
2023-04-12T01:22:23.891Z,101194.69
2023-04-12T01:23:43.678Z,101227.28
2023-04-12T01:25:10.359Z,101217.00
2023-04-12T01:26:37.213Z,101222.50
2023-04-12T01:28:14.473Z,101222.63
2023-04-12T01:29:19.285Z,101217.84
2023-04-12T01:30:24.297Z,101220.09
2023-04-12T01:31:28.697Z,101216.84
2023-04-12T01:32:31.729Z,101216.13
2023-04-12T01:33:36.846Z,101220.78
2023-04-12T01:34:41.652Z,101208.78
2023-04-12T01:35:44.590Z,101213.03
2023-04-12T01:36:48.608Z,101207.69
2023-04-12T01:37:50.721Z,101206.81
2023-04-12T01:38:52.668Z,101215.84
2023-04-12T01:39:54.530Z,101216.72
2023-04-12T01:40:56.596Z,101207.81
2023-04-12T01:41:59.765Z,101214.16
2023-04-12T01:43:09.325Z,101206.97
2023-04-12T01:44:16.428Z,101211.19
2023-04-12T01:45:18.382Z,101211.19
2023-04-12T01:46:23.296Z,101200.63
2023-04-12T01:47:27.201Z,101209.50
2023-04-12T01:48:29.090Z,101213.03
2023-04-12T01:49:39.642Z,101209.66
2023-04-12T01:50:59.917Z,101206.25
2023-04-12T01:52:12.148Z,101202.84
2023-04-12T01:53:25.609Z,101207.38
2023-04-12T01:54:34.400Z,101205.53
2023-04-12T01:55:39.247Z,101204.72
2023-04-12T01:56:46.632Z,101198.78
2023-04-12T01:57:49.453Z,101203.16
2023-04-12T01:58:53.566Z,101205.13
2023-04-12T01:59:58.679Z,101203.44
2023-04-12T02:01:03.135Z,101211.47
2023-04-12T02:02:06.045Z,101211.34
2023-04-12T02:03:08.724Z,101223.06
2023-04-12T02:04:11.754Z,101223.19
2023-04-12T02:05:14.068Z,101217.81
2023-04-12T02:06:19.644Z,101212.63
2023-04-12T02:07:21.945Z,101217.00
2023-04-12T02:08:24.174Z,101220.50
2023-04-12T02:09:27.439Z,101220.50
2023-04-12T02:10:30.940Z,101212.75
2023-04-12T02:11:32.780Z,101213.44
2023-04-12T02:12:34.552Z,101215.31
2023-04-12T02:13:37.592Z,101221.50
2023-04-12T02:14:40.109Z,101213.63
2023-04-12T02:15:41.913Z,101218.97
2023-04-12T02:16:44.844Z,101212.75
2023-04-12T02:17:46.933Z,101210.06
2023-04-12T02:18:51.977Z,101208.25
2023-04-12T02:19:54.358Z,101205.88
2023-04-12T02:20:56.824Z,101206.56
2023-04-12T02:21:58.606Z,101208.38
2023-04-12T02:23:01.075Z,101213.75
2023-04-12T02:24:02.933Z,101211.94
2023-04-12T02:25:08.384Z,101208.25
2023-04-12T02:26:11.348Z,101187.09
2023-04-12T02:27:13.165Z,101212.75
2023-04-12T02:28:15.141Z,101204.41
2023-04-12T02:29:17.638Z,101203.59
2023-04-12T02:30:22.875Z,101206.56
2023-04-12T02:31:28.106Z,101209.09
2023-04-12T02:32:32.963Z,101202.03
2023-04-12T02:33:36.924Z,101210.94
2023-04-12T02:34:44.228Z,101204.00
2023-04-12T02:35:52.475Z,101195.56
2023-04-12T02:36:55.874Z,101207.25
2023-04-12T02:37:57.953Z,101207.41
2023-04-12T02:39:04.239Z,101207.41
2023-04-12T02:40:11.305Z,101196.38
2023-04-12T02:41:18.794Z,101208.38
2023-04-12T02:42:20.926Z,101209.09
2023-04-12T02:43:24.093Z,101201.75
2023-04-12T02:44:33.920Z,101206.41
2023-04-12T02:45:54.584Z,101205.28
2023-04-12T02:46:56.520Z,101202.72
2023-04-12T02:47:58.584Z,101202.03
2023-04-12T02:49:03.905Z,101209.25
2023-04-12T02:50:10.983Z,101209.25
2023-04-12T02:51:23.411Z,101189.91
2023-04-12T02:52:26.156Z,101202.91
2023-04-12T02:53:41.984Z,101203.19
2023-04-12T02:54:51.400Z,101190.31
2023-04-12T02:55:53.328Z,101203.19
2023-04-12T02:56:58.822Z,101198.38
2023-04-12T02:58:21.243Z,101214.16
2023-04-12T02:59:25.896Z,101205.56
2023-04-12T03:00:53.974Z,101215.84
2023-04-12T03:02:01.611Z,101212.47
2023-04-12T03:03:08.959Z,101213.44
2023-04-12T03:04:11.274Z,101218.13
2023-04-12T03:05:21.450Z,101211.06
2023-04-12T03:06:23.312Z,101214.72
2023-04-12T03:07:25.295Z,101211.34
2023-04-12T03:08:28.738Z,101191.75
2023-04-12T03:09:33.100Z,101208.78
2023-04-12T03:10:35.628Z,101202.31
2023-04-12T03:11:38.433Z,101217.69
2023-04-12T03:12:41.326Z,101220.38
2023-04-12T03:13:52.475Z,101211.34
2023-04-12T03:14:54.879Z,101199.50
2023-04-12T03:16:00.258Z,101206.13
2023-04-12T03:17:11.017Z,101212.22
2023-04-12T03:18:12.883Z,101209.66
2023-04-12T03:19:23.565Z,101212.22
2023-04-12T03:20:29.569Z,101206.00
2023-04-12T03:21:41.352Z,101208.53
2023-04-12T03:22:43.220Z,101210.53
2023-04-12T03:23:45.541Z,101212.34
2023-04-12T03:24:51.771Z,101207.97
2023-04-12T03:25:56.209Z,101214.31
2023-04-12T03:27:10.494Z,101214.03
2023-04-12T03:28:12.753Z,101218.56
2023-04-12T03:29:26.143Z,101207.97
2023-04-12T03:30:29.636Z,101218.69
2023-04-12T03:31:32.887Z,101211.63
2023-04-12T03:32:41.924Z,101214.44
2023-04-12T03:33:45.606Z,101222.34
2023-04-12T03:35:08.796Z,101220.09
2023-04-12T03:36:11.258Z,101221.25
2023-04-12T03:37:13.601Z,101217.00
2023-04-12T03:38:17.227Z,101216.41
2023-04-12T03:39:19.298Z,101219.81
2023-04-12T03:40:25.827Z,101217.97
2023-04-12T03:41:34.001Z,101224.88
2023-04-12T03:42:38.972Z,101224.16
2023-04-12T03:43:46.830Z,101220.38
2023-04-12T03:44:54.052Z,101213.44
2023-04-12T03:45:57.352Z,101222.34
2023-04-12T03:47:00.768Z,101216.13
2023-04-12T03:48:08.793Z,101221.50
2023-04-12T03:49:16.910Z,101208.94
2023-04-12T03:50:22.678Z,101213.44
2023-04-12T03:51:30.840Z,101211.63
2023-04-12T03:52:38.411Z,101210.66
2023-04-12T03:53:42.031Z,101224.03
2023-04-12T03:54:48.651Z,101224.03
2023-04-12T03:55:58.799Z,101218.69
2023-04-12T03:57:05.548Z,101213.59
2023-04-12T03:58:16.380Z,101175.41
2023-04-12T03:59:20.321Z,101216.00
2023-04-12T04:00:24.397Z,101200.63
2023-04-12T04:01:36.408Z,101218.69
2023-04-12T04:02:38.660Z,101213.59
2023-04-12T04:03:46.060Z,101206.56
2023-04-12T04:04:58.419Z,101212.47
2023-04-12T04:06:02.609Z,101207.38
2023-04-12T04:07:07.941Z,101213.59
2023-04-12T04:08:18.846Z,101209.25
2023-04-12T04:09:26.217Z,101168.91
2023-04-12T04:10:28.740Z,101205.56
2023-04-12T04:11:32.087Z,101202.03
2023-04-12T04:12:40.528Z,101202.91
2023-04-12T04:13:46.786Z,101202.91
2023-04-12T04:14:53.870Z,101202.91
2023-04-12T04:16:21.923Z,101206.69
2023-04-12T04:17:25.713Z,101200.75
2023-04-12T04:18:28.794Z,101208.25
2023-04-12T04:19:30.913Z,101210.06
2023-04-12T04:20:32.969Z,101211.06
2023-04-12T04:21:35.119Z,101213.03
2023-04-12T04:22:37.030Z,101211.22
2023-04-12T04:23:39.463Z,101211.78
2023-04-12T04:24:42.770Z,101214.19
2023-04-12T04:25:45.186Z,101223.75
2023-04-12T04:26:50.389Z,101222.94
2023-04-12T04:27:59.741Z,101231.66
2023-04-12T04:29:05.272Z,101230.69
2023-04-12T04:30:15.366Z,101229.69
2023-04-12T04:31:22.410Z,101229.69
2023-04-12T04:32:25.759Z,101232.50
2023-04-12T04:33:32.812Z,101226.16
2023-04-12T04:34:37.250Z,101228.00
2023-04-12T04:35:44.993Z,101222.63
2023-04-12T04:37:03.057Z,101215.59
2023-04-12T04:38:04.843Z,101229.69
2023-04-12T04:39:06.650Z,101231.66
2023-04-12T04:40:15.339Z,101229.00
2023-04-12T04:41:17.652Z,101232.66
2023-04-12T04:42:26.506Z,101227.28
2023-04-12T04:43:40.210Z,101222.63
2023-04-12T04:44:42.700Z,101220.94
2023-04-12T04:45:49.367Z,101210.94
2023-04-12T04:46:52.545Z,101222.75
2023-04-12T04:47:55.084Z,101214.88
2023-04-12T04:48:57.001Z,101205.72
2023-04-12T04:50:00.196Z,101210.50
2023-04-12T04:51:02.812Z,101207.84
2023-04-12T04:52:04.872Z,101214.19
2023-04-12T04:53:06.670Z,101207.97
2023-04-12T04:54:08.790Z,101212.50
2023-04-12T04:55:15.049Z,101207.13
2023-04-12T04:56:20.089Z,101203.31
2023-04-12T04:57:26.816Z,101199.63
2023-04-12T04:58:31.292Z,101202.47
2023-04-12T04:59:34.549Z,101195.72
2023-04-12T05:00:49.030Z,101204.88
2023-04-12T05:01:52.456Z,101208.66
2023-04-12T05:02:55.750Z,101205.16
2023-04-12T05:04:01.210Z,101195.28
2023-04-12T05:05:04.378Z,101215.88
2023-04-12T05:06:08.819Z,101208.81
2023-04-12T05:07:14.348Z,101205.84
2023-04-12T05:08:19.442Z,101213.03
2023-04-12T05:09:23.271Z,101208.53
2023-04-12T05:10:30.779Z,101214.44
2023-04-12T05:11:37.383Z,101203.88
2023-04-12T05:12:44.104Z,101210.66
2023-04-12T05:13:48.109Z,101174.97
2023-04-12T05:14:51.750Z,101215.72
2023-04-12T05:15:54.431Z,101199.06
2023-04-12T05:16:57.284Z,101209.09
2023-04-12T05:17:59.279Z,101212.47
2023-04-12T05:19:01.231Z,101213.16
2023-04-12T05:20:06.454Z,101211.19
2023-04-12T05:21:08.382Z,101212.47
2023-04-12T05:22:10.637Z,101213.03
2023-04-12T05:23:12.464Z,101202.03
2023-04-12T05:24:14.291Z,101221.53
2023-04-12T05:25:20.918Z,101223.91
2023-04-12T05:26:30.492Z,101227.72
2023-04-12T05:27:33.718Z,101225.56
2023-04-12T05:28:37.220Z,101220.06
2023-04-12T05:29:39.084Z,101226.00
2023-04-12T05:30:44.615Z,101228.22
2023-04-12T05:31:49.420Z,101226.94
2023-04-12T05:32:54.945Z,101234.69
2023-04-12T05:33:56.945Z,101221.00
2023-04-12T05:35:05.604Z,101223.38
2023-04-12T05:36:08.135Z,101223.94
2023-04-12T05:37:11.119Z,101229.88
2023-04-12T05:38:14.312Z,101235.78
2023-04-12T05:39:18.232Z,101224.91
2023-04-12T05:40:21.613Z,101229.00
2023-04-12T05:41:27.362Z,101234.06
2023-04-12T05:42:29.166Z,101239.13
2023-04-12T05:43:34.011Z,101243.38
2023-04-12T05:44:38.770Z,101245.78
2023-04-12T05:45:44.381Z,101240.94
2023-04-12T05:46:46.328Z,101241.63
2023-04-12T05:47:48.568Z,101241.50
2023-04-12T05:48:50.632Z,101242.19
2023-04-12T05:49:54.085Z,101225.81
2023-04-12T05:50:55.907Z,101244.41
2023-04-12T05:51:58.911Z,101242.44
2023-04-12T05:53:01.894Z,101238.75
2023-04-12T05:54:07.317Z,101243.03
2023-04-12T05:55:10.528Z,101213.09
2023-04-12T05:56:16.292Z,101240.72
2023-04-12T05:57:19.358Z,101242.41
2023-04-12T05:58:23.556Z,101246.66
2023-04-12T05:59:30.937Z,101237.22
2023-04-12T06:00:33.383Z,101249.19
2023-04-12T06:01:35.302Z,101254.41
2023-04-12T06:02:37.903Z,101224.63
2023-04-12T06:03:41.895Z,101249.75
2023-04-12T06:04:50.626Z,101251.44
2023-04-12T06:05:54.140Z,101252.97
2023-04-12T06:06:56.315Z,101261.88
2023-04-12T06:08:00.007Z,101261.19
2023-04-12T06:09:02.790Z,101276.84
2023-04-12T06:10:05.340Z,101276.84
2023-04-12T06:11:08.480Z,101272.31
2023-04-12T06:12:11.039Z,101234.84
2023-04-12T06:13:12.824Z,101260.59
2023-04-12T06:14:17.342Z,101260.44
2023-04-12T06:15:21.097Z,101255.22
2023-04-12T06:16:28.457Z,101255.91
2023-04-12T06:17:30.430Z,101249.53
2023-04-12T06:18:32.472Z,101245.03
2023-04-12T06:19:34.289Z,101241.47
2023-04-12T06:20:39.645Z,101225.66
2023-04-12T06:21:41.739Z,101231.59
2023-04-12T06:22:44.365Z,101231.59
2023-04-12T06:23:48.840Z,101234.97
2023-04-12T06:24:52.262Z,101244.03
2023-04-12T06:25:54.752Z,101236.97
2023-04-12T06:26:56.571Z,101233.28
2023-04-12T06:27:58.554Z,101229.75
2023-04-12T06:29:01.407Z,101224.53
2023-04-12T06:30:03.627Z,101224.38
2023-04-12T06:31:09.747Z,101215.47
2023-04-12T06:32:13.951Z,101207.47
2023-04-12T06:33:16.016Z,101206.31
2023-04-12T06:34:17.996Z,101207.88
2023-04-12T06:35:21.600Z,101218.00
2023-04-12T06:36:23.970Z,101220.69
2023-04-12T06:37:25.724Z,101218.88
2023-04-12T06:38:27.640Z,101226.06
2023-04-12T06:39:29.421Z,101230.44
2023-04-12T06:40:31.512Z,101233.97
2023-04-12T06:41:33.347Z,101233.44
2023-04-12T06:42:36.667Z,101233.97
2023-04-12T06:43:38.826Z,101237.50
2023-04-12T06:44:40.862Z,101237.50
2023-04-12T06:45:42.763Z,101229.91
2023-04-12T06:46:44.782Z,101241.88
2023-04-12T06:47:47.546Z,101237.34
2023-04-12T06:48:49.352Z,101237.50
2023-04-12T06:49:56.193Z,101236.50
2023-04-12T06:50:58.420Z,101229.31
2023-04-12T06:52:00.452Z,101229.31
2023-04-12T06:53:02.253Z,101217.31
2023-04-12T06:54:04.088Z,101234.69
2023-04-12T06:55:07.207Z,101238.19
2023-04-12T06:56:09.145Z,101229.13
2023-04-12T06:57:11.536Z,101214.94
2023-04-12T06:58:13.292Z,101225.22
2023-04-12T06:59:15.471Z,101231.81
2023-04-12T07:00:17.421Z,101232.69
2023-04-12T07:01:19.342Z,101234.50
2023-04-12T07:02:21.282Z,101224.53
2023-04-12T07:03:24.678Z,101243.44
2023-04-12T07:04:26.654Z,101246.94
2023-04-12T07:05:28.478Z,101240.56
2023-04-12T07:06:30.324Z,101242.25
2023-04-12T07:07:32.253Z,101234.38
2023-04-12T07:08:35.748Z,101232.00
2023-04-12T07:09:37.556Z,101231.53
2023-04-12T07:10:39.397Z,101230.69
2023-04-12T07:11:41.432Z,101228.84
2023-04-12T07:12:43.224Z,101231.53
2023-04-12T07:13:45.010Z,101240.25
2023-04-12T07:14:46.803Z,101221.00
2023-04-12T07:15:50.566Z,101240.25
2023-04-12T07:16:52.460Z,101233.06
2023-04-12T07:17:54.377Z,101234.91
2023-04-12T07:18:56.645Z,101237.44
2023-04-12T07:19:58.905Z,101227.53
2023-04-12T07:21:00.791Z,101227.53
2023-04-12T07:22:02.549Z,101229.22
2023-04-12T07:23:04.325Z,101240.81
2023-04-12T07:24:06.372Z,101239.97
2023-04-12T07:25:10.978Z,101239.00
2023-04-12T07:26:12.831Z,101246.06
2023-04-12T07:27:14.710Z,101243.38
2023-04-12T07:28:16.814Z,101247.75
2023-04-12T07:29:19.130Z,101243.38
2023-04-12T07:30:21.364Z,101249.75
2023-04-12T07:31:24.018Z,101246.88
2023-04-12T07:32:26.031Z,101243.38
2023-04-12T07:33:28.131Z,101246.75
2023-04-12T07:34:30.459Z,101248.56
2023-04-12T07:35:33.062Z,101245.06
2023-04-12T07:36:34.879Z,101245.06
2023-04-12T07:37:37.596Z,101248.75
2023-04-12T07:38:39.401Z,101250.44
2023-04-12T07:39:41.424Z,101254.81
2023-04-12T07:40:43.223Z,101252.13
2023-04-12T07:41:46.922Z,101250.28
2023-04-12T07:42:48.726Z,101249.44
2023-04-12T07:43:50.645Z,101253.81
2023-04-12T07:44:52.403Z,101252.94
2023-04-12T07:45:57.414Z,101263.69
2023-04-12T07:46:59.270Z,101258.19
2023-04-12T07:48:01.212Z,101253.81
2023-04-12T07:49:03.764Z,101260.88
2023-04-12T07:50:06.968Z,101263.56
2023-04-12T07:51:09.197Z,101257.81
2023-04-12T07:52:11.080Z,101274.16
2023-04-12T07:53:27.755Z,101272.16
2023-04-12T07:54:29.742Z,101273.00
2023-04-12T07:55:31.507Z,101279.38
2023-04-12T07:56:36.563Z,101280.38
2023-04-12T07:57:38.421Z,101286.56
2023-04-12T07:58:40.542Z,101285.75
2023-04-12T07:59:42.423Z,101291.13
2023-04-12T08:00:48.028Z,101291.13
2023-04-12T08:01:49.827Z,101283.50
2023-04-12T08:02:51.797Z,101291.13
2023-04-12T08:03:53.934Z,101291.13
2023-04-12T08:04:55.918Z,101281.69
2023-04-12T08:05:57.725Z,101298.19
2023-04-12T08:06:59.591Z,101282.06
2023-04-12T08:08:01.406Z,101298.19
2023-04-12T08:09:03.231Z,101295.50
2023-04-12T08:10:05.786Z,101303.56
2023-04-12T08:11:07.711Z,101295.09
2023-04-12T08:12:09.501Z,101308.94
2023-04-12T08:13:11.319Z,101307.94
2023-04-12T08:14:13.591Z,101295.63
2023-04-12T08:15:15.377Z,101298.00
2023-04-12T08:16:17.272Z,101292.66
2023-04-12T08:17:19.182Z,101302.41
2023-04-12T08:18:21.125Z,101303.25
2023-04-12T08:19:23.127Z,101304.25
2023-04-12T08:20:24.981Z,101307.78
2023-04-12T08:21:27.800Z,101303.25
2023-04-12T08:22:30.020Z,101314.00
2023-04-12T08:23:31.872Z,101304.69
2023-04-12T08:24:33.645Z,101316.81
2023-04-12T08:25:35.580Z,101319.38
2023-04-12T08:26:38.178Z,101325.75
2023-04-12T08:27:42.665Z,101318.50
2023-04-12T08:28:44.823Z,101320.22
2023-04-12T08:29:46.718Z,101321.06
2023-04-12T08:30:48.531Z,101318.69
2023-04-12T08:31:50.428Z,101281.47
2023-04-12T08:32:53.463Z,101313.16
2023-04-12T08:33:56.724Z,101291.25
2023-04-12T08:34:59.013Z,101294.19
2023-04-12T08:36:01.971Z,101292.34
2023-04-12T08:37:03.983Z,101286.13
2023-04-12T08:38:07.857Z,101283.44
2023-04-12T08:39:09.782Z,101280.75
2023-04-12T08:40:12.425Z,101287.13
2023-04-12T08:41:15.082Z,101288.13
2023-04-12T08:42:17.366Z,101275.53
2023-04-12T08:43:19.713Z,101273.00
2023-04-12T08:44:38.416Z,101280.22
2023-04-12T08:45:40.393Z,101296.72
2023-04-12T08:46:42.845Z,101292.50
2023-04-12T08:47:45.205Z,101275.31
2023-04-12T08:48:49.555Z,101283.75
2023-04-12T08:49:51.422Z,101293.50
2023-04-12T08:50:54.827Z,101287.56
2023-04-12T08:52:08.975Z,101297.31
2023-04-12T08:53:11.940Z,101292.50
2023-04-12T08:54:13.848Z,101294.34
2023-04-12T08:55:15.717Z,101290.81
2023-04-12T08:56:17.554Z,101280.69
2023-04-12T08:57:20.365Z,101290.25
2023-04-12T08:58:23.606Z,101295.63
2023-04-12T08:59:29.194Z,101298.31
2023-04-12T09:00:31.137Z,101291.94
2023-04-12T09:01:33.707Z,101255.91
2023-04-12T09:02:39.522Z,101299.19
2023-04-12T09:03:45.651Z,101295.63
2023-04-12T09:04:52.620Z,101291.94
2023-04-12T09:05:54.494Z,101297.19
2023-04-12T09:06:56.670Z,101291.81
2023-04-12T09:07:58.901Z,101297.31
2023-04-12T09:09:01.586Z,101304.56
2023-04-12T09:10:04.813Z,101294.13
2023-04-12T09:11:26.797Z,101304.09
2023-04-12T09:12:28.836Z,101307.63
2023-04-12T09:13:35.573Z,101308.75
2023-04-12T09:14:38.880Z,101298.88
2023-04-12T09:15:49.499Z,101307.78
2023-04-12T09:16:51.954Z,101305.09
2023-04-12T09:18:08.390Z,101305.78
2023-04-12T09:19:10.336Z,101306.63
2023-04-12T09:20:18.465Z,101271.09
2023-04-12T09:21:20.275Z,101308.63
2023-04-12T09:22:35.510Z,101308.47
2023-04-12T09:23:37.450Z,101304.94
2023-04-12T09:24:51.680Z,101302.25
2023-04-12T09:25:53.821Z,101298.72
2023-04-12T09:27:06.078Z,101301.41
2023-04-12T09:28:27.332Z,101281.06
2023-04-12T09:29:29.773Z,101297.41
2023-04-12T09:30:42.319Z,101285.59
2023-04-12T09:31:55.672Z,101282.59
2023-04-12T09:33:11.600Z,101301.78
2023-04-12T09:34:13.424Z,101300.09
2023-04-12T09:35:15.513Z,101305.63
2023-04-12T09:36:19.135Z,101319.38
2023-04-12T09:37:21.037Z,101333.50
2023-04-12T09:38:22.859Z,101335.34
2023-04-12T09:39:35.101Z,101326.28
2023-04-12T09:40:37.918Z,101330.66
2023-04-12T09:41:39.713Z,101313.44
2023-04-12T09:42:54.305Z,101316.13
2023-04-12T09:43:56.490Z,101303.47
2023-04-12T09:44:59.567Z,101341.25
2023-04-12T09:46:14.420Z,101343.09
2023-04-12T09:47:16.474Z,101340.28
2023-04-12T09:48:21.108Z,101348.63
2023-04-12T09:49:40.080Z,101342.94
2023-04-12T09:50:42.178Z,101340.97
2023-04-12T09:51:51.628Z,101350.44
2023-04-12T09:52:54.882Z,101347.47
2023-04-12T09:54:06.921Z,101354.53
2023-04-12T09:55:10.298Z,101352.16
2023-04-12T09:56:13.442Z,101352.16
2023-04-12T09:57:19.184Z,101352.16
2023-04-12T09:58:22.032Z,101347.63
2023-04-12T09:59:28.287Z,101344.09
2023-04-12T10:00:32.055Z,101353.00
2023-04-12T10:01:40.390Z,101361.06
2023-04-12T10:02:45.104Z,101355.53
2023-04-12T10:03:48.928Z,101339.88
2023-04-12T10:04:51.628Z,101338.56
2023-04-12T10:05:55.248Z,101316.53
2023-04-12T10:07:01.189Z,101298.56
2023-04-12T10:08:04.833Z,101277.78
2023-04-12T10:09:08.721Z,101268.03
2023-04-12T10:10:12.691Z,101280.59
2023-04-12T10:11:14.899Z,101268.16
2023-04-12T10:12:17.328Z,101256.03
2023-04-12T10:13:20.088Z,101261.97
2023-04-12T10:14:22.710Z,101253.22
2023-04-12T10:15:25.678Z,101255.19
2023-04-12T10:16:37.955Z,101265.66
2023-04-12T10:17:46.638Z,101259.28
2023-04-12T10:18:50.431Z,101259.09
2023-04-12T10:19:53.004Z,101260.28
2023-04-12T10:20:55.624Z,101264.66
2023-04-12T10:21:58.478Z,101268.47
2023-04-12T10:23:00.687Z,101274.69
2023-04-12T10:24:07.200Z,101271.94
2023-04-12T10:25:13.504Z,101283.75
2023-04-12T10:26:16.972Z,101288.13
2023-04-12T10:27:26.460Z,101292.50
2023-04-12T10:28:28.233Z,101294.19
2023-04-12T10:29:38.638Z,101283.75
2023-04-12T10:30:40.652Z,101290.53
2023-04-12T10:31:42.805Z,101284.44
2023-04-12T10:32:44.838Z,101290.81
2023-04-12T10:33:47.690Z,101285.06
2023-04-12T10:34:54.658Z,101293.66
2023-04-12T10:36:08.748Z,101293.66
2023-04-12T10:37:10.957Z,101298.56
2023-04-12T10:38:12.777Z,101300.72
2023-04-12T10:39:15.389Z,101301.56
2023-04-12T10:40:19.163Z,101296.19
2023-04-12T10:41:22.227Z,101295.34
2023-04-12T10:42:28.755Z,101296.31
2023-04-12T10:43:33.401Z,101289.81
2023-04-12T10:44:36.034Z,101290.66
2023-04-12T10:45:38.493Z,101299.72
2023-04-12T10:46:40.671Z,101292.50
2023-04-12T10:47:48.580Z,101304.94
2023-04-12T10:48:53.794Z,101304.25
2023-04-12T10:50:32.216Z,101304.03
2023-04-12T10:51:36.079Z,101309.41
2023-04-12T10:52:44.483Z,101302.66
2023-04-12T10:53:46.897Z,101308.84
2023-04-12T10:54:57.302Z,101300.66
2023-04-12T10:55:59.126Z,101295.59
2023-04-12T10:57:04.665Z,101297.41
2023-04-12T10:58:47.707Z,101293.97
2023-04-12T10:59:56.767Z,101300.03
2023-04-12T11:00:58.970Z,101295.84
2023-04-12T11:02:13.745Z,101303.03
2023-04-12T11:03:20.017Z,101311.09
2023-04-12T11:04:22.382Z,101307.72
2023-04-12T11:06:12.628Z,101295.84
2023-04-12T11:07:44.906Z,101294.38
2023-04-12T11:09:25.654Z,101287.31
2023-04-12T11:10:28.605Z,101304.81
2023-04-12T11:11:34.888Z,101307.28
2023-04-12T11:12:38.727Z,101303.91
2023-04-12T11:13:41.220Z,101306.59
2023-04-12T11:14:47.010Z,101309.41
2023-04-12T11:15:55.005Z,101306.84
2023-04-12T11:17:06.140Z,101310.28
2023-04-12T11:18:08.237Z,101307.41
2023-04-12T11:19:10.786Z,101314.78
2023-04-12T11:20:13.634Z,101309.41
2023-04-12T11:21:15.831Z,101310.41
2023-04-12T11:22:19.957Z,101295.88
2023-04-12T11:23:22.098Z,101308.56
2023-04-12T11:24:23.916Z,101310.41
2023-04-12T11:25:26.178Z,101309.53
2023-04-12T11:26:31.414Z,101300.25
2023-04-12T11:27:34.463Z,101306.84
2023-04-12T11:28:36.237Z,101306.84
2023-04-12T11:29:38.668Z,101290.81
2023-04-12T11:30:49.899Z,101307.72
2023-04-12T11:31:51.807Z,101309.41
2023-04-12T11:32:53.677Z,101303.47
2023-04-12T11:33:56.280Z,101303.19
2023-04-12T11:34:58.917Z,101298.81
2023-04-12T11:36:06.484Z,101289.03
2023-04-12T11:37:09.422Z,101299.66
2023-04-12T11:38:11.285Z,101293.59
2023-04-12T11:39:13.894Z,101304.03
2023-04-12T11:40:16.075Z,101305.88
2023-04-12T11:41:18.692Z,101307.72
2023-04-12T11:42:23.861Z,101312.22
2023-04-12T11:43:25.784Z,101315.78
2023-04-12T11:44:27.847Z,101313.09
2023-04-12T11:45:31.988Z,101313.09
2023-04-12T11:46:34.247Z,101314.09
2023-04-12T11:47:36.749Z,101308.56
2023-04-12T11:48:38.937Z,101301.25
2023-04-12T11:49:44.802Z,101303.09
2023-04-12T11:50:51.846Z,101320.16
2023-04-12T11:52:04.618Z,101311.97
2023-04-12T11:53:13.509Z,101317.16
2023-04-12T11:54:15.679Z,101323.53
2023-04-12T11:55:17.737Z,101316.47
2023-04-12T11:56:19.728Z,101300.41
2023-04-12T11:57:21.638Z,101319.47
2023-04-12T11:58:27.335Z,101315.09
2023-04-12T11:59:33.939Z,101322.16
2023-04-12T12:00:36.335Z,101321.16
2023-04-12T12:01:38.383Z,101321.28
2023-04-12T12:02:46.541Z,101320.47
2023-04-12T12:03:55.275Z,101314.91
2023-04-12T12:04:57.732Z,101321.16
2023-04-12T12:05:59.919Z,101306.94
2023-04-12T12:07:02.625Z,101323.16
2023-04-12T12:08:07.595Z,101321.28
2023-04-12T12:09:09.818Z,101323.16
2023-04-12T12:10:13.359Z,101323.16
2023-04-12T12:11:21.614Z,101326.66
2023-04-12T12:12:24.780Z,101325.97
2023-04-12T12:13:26.621Z,101323.16
2023-04-12T12:14:29.221Z,101325.84
2023-04-12T12:15:31.859Z,101329.34
2023-04-12T12:16:35.950Z,101328.53
2023-04-12T12:17:38.863Z,101324.16
2023-04-12T12:18:45.114Z,101293.41
2023-04-12T12:19:46.990Z,101327.66
2023-04-12T12:20:50.559Z,101323.28
2023-04-12T12:21:52.408Z,101319.78
2023-04-12T12:22:54.583Z,101329.53